Latest Weather Observations for Hervey Bay

IDQ60801

Issued at 4:32 am EST Tuesday 27 September 2016 (issued every 30 minutes, with the page automatically refreshed every 10 minutes)

About weather observations | Map of weather stations | Latest weather observations for QLD | Other Formats
Station Details ID: 040405 Name: HERVEY BAY AIRPORT Lat: -25.32 Lon: 152.88 Height: 12.98 m
Data from the previous 72 hours. | See also: Recent months at Hervey Bay
Date/Time
EST
Temp
°C
App
Temp
°C
Dew
Point
°C
Rel
Hum
%
Delta-T
°C
Wind Press
QNH
hPa
Press
MSL
hPa
Rain since
9am
mm
Dir  Spd
km/h
Gust
km/h
Spd
kts
Gust
kts
27/04:30am 15.5 14.6 11.3 76 2.3 WSW 7 9 4 5 1012.7 1012.6 0.2
27/04:00am 15.3 14.3 12.2 82 1.7 SW 9 11 5 6 1012.6 1012.5 0.2
27/03:30am 15.4 14.9 12.2 81 1.7 WSW 6 9 3 5 1012.1 1012.0 0.2
27/03:00am 15.6 14.8 12.9 84 1.5 SW 9 11 5 6 1012.1 1012.0 0.2
27/02:30am 15.4 16.5 13.4 88 1.1 CALM 0 0 0 0 1011.9 1011.8 0.2
27/02:00am 15.2 14.9 13.4 89 1.0 SW 7 9 4 5 1012.2 1012.1 0.2
27/01:30am 15.0 14.8 13.0 88 1.1 SW 6 7 3 4 1012.1 1012.0 0.2
27/01:00am 15.5 16.5 13.2 86 1.3 CALM 0 6 0 3 1012.2 1012.1 0.2
27/12:30am 16.1 16.0 13.2 83 1.6 WSW 6 7 3 4 1013.0 1012.9 0.2
27/12:00am 16.7 16.9 13.2 80 2.0 WSW 4 6 2 3 1013.2 1013.1 0.2
 
Date/Time
EST
Temp
°C
App
Temp
°C
Dew
Point
°C
Rel
Hum
%
Delta-T
°C
Wind Press
QNH
hPa
Press
MSL
hPa
Rain since
9am
mm
Dir  Spd
km/h
Gust
km/h
Spd
kts
Gust
kts
26/11:30pm 17.7 17.8 13.8 78 2.2 WSW 6 7 3 4 1013.4 1013.3 0.2
26/11:00pm 19.2 18.9 13.2 68 3.4 WNW 7 9 4 5 1013.7 1013.6 0.2
26/10:30pm 20.6 19.6 13.3 63 4.2 NW 11 20 6 11 1013.6 1013.5 0.2
26/10:00pm 21.0 19.6 13.4 62 4.4 NNW 13 20 7 11 1013.3 1013.2 0.2
26/09:30pm 20.9 19.4 13.1 61 4.4 N 13 17 7 9 1013.2 1013.1 0.2
26/09:00pm 20.7 20.1 13.6 64 4.1 N 9 15 5 8 1012.9 1012.8 0.2
26/08:30pm 20.1 19.6 13.8 67 3.6 N 9 11 5 6 1012.7 1012.6 0.2
26/08:00pm 20.3 19.7 13.5 65 3.9 NNE 9 13 5 7 1012.3 1012.2 0.2
26/07:30pm 20.9 19.3 12.8 60 4.6 NE 13 17 7 9 1012.0 1011.9 0.2
26/07:00pm 21.3 20.3 13.5 61 4.5 ENE 11 19 6 10 1012.0 1011.9 0.2
26/06:30pm 21.5 20.2 12.6 57 5.0 NNE 11 17 6 9 1011.7 1011.6 0.2
26/06:00pm 21.3 19.9 12.2 56 5.1 NNE 11 15 6 8 1011.2 1011.1 0.2
26/05:30pm 22.6 20.8 10.7 47 6.6 NNE 11 17 6 9 1010.8 1010.7 0.2
26/05:00pm 23.4 20.4 9.4 41 7.6 N 15 20 8 11 1010.6 1010.5 0.2
26/04:30pm 24.1 21.2 9.7 40 7.9 N 15 22 8 12 1010.1 1010.0 0.2
26/04:00pm 24.6 21.4 8.5 36 8.6 NNE 15 20 8 11 1010.0 1009.9 0.2
26/03:30pm 25.5 22.0 8.9 35 9.0 ENE 17 26 9 14 1009.9 1009.8 0.2
26/03:00pm 25.6 22.6 7.7 32 9.5 NE 13 20 7 11 1009.8 1009.7 0.2
26/02:30pm 25.6 22.1 7.2 31 9.7 NE 15 22 8 12 1009.9 1009.8 0.2
26/02:00pm 25.3 20.9 6.5 30 9.8 N 19 24 10 13 1010.2 1010.1 0.2
26/01:30pm 25.4 22.0 7.5 32 9.5 NNE 15 24 8 13 1010.6 1010.5 0.2
26/01:00pm 26.0 22.5 7.1 30 10.0 ENE 15 22 8 12 1011.1 1011.0 0.2
26/12:30pm 25.6 22.3 6.3 29 10.0 SE 13 26 7 14 1011.5 1011.4 0.2
26/12:00pm 25.4 22.6 7.1 31 9.6 ESE 11 19 6 10 1012.0 1011.9 0.2
26/11:30am 25.4 22.9 8.0 33 9.3 SSE 11 17 6 9 1012.7 1012.6 0.2
26/11:00am 25.0 22.9 5.7 29 9.9 S 6 15 3 8 1013.1 1013.0 0.2
26/10:30am 24.5 21.4 7.2 33 9.1 SSW 13 20 7 11 1013.6 1013.5 0.2
26/10:00am 23.4 19.6 7.5 36 8.3 S 17 26 9 14 1013.8 1013.7 0.2
26/09:30am 22.6 18.6 8.3 40 7.5 SSW 19 26 10 14 1013.6 1013.5 0.0
26/09:00am 22.4 18.6 9.9 45 6.8 SW 20 30 11 16 1013.9 1013.8 0.4
26/08:30am 21.3 18.5 9.9 48 6.2 SSW 15 26 8 14 1014.0 1013.9 0.4
26/08:00am 20.1 18.2 10.5 54 5.2 SW 11 15 6 8 1013.8 1013.7 0.4
26/07:30am 18.4 17.2 11.5 64 3.8 WSW 9 13 5 7 1013.8 1013.7 0.4
26/07:00am 16.3 16.4 12.8 80 1.9 WSW 4 7 2 4 1013.6 1013.5 0.4
26/06:30am 13.3 13.8 11.5 89 1.0 CALM 0 0 0 0 1013.1 1013.0 0.4
26/06:00am 10.9 10.5 9.7 92 0.6 S 2 7 1 4 1012.5 1012.4 0.4
26/05:30am 10.4 8.9 9.3 93 0.5 S 7 9 4 5 1012.1 1012.0 0.4
26/05:00am 10.6 9.4 9.5 93 0.6 SSW 6 7 3 4 1011.8 1011.7 0.4
26/04:30am 11.1 9.4 10.0 93 0.6 SSW 9 9 5 5 1011.5 1011.4 0.4
26/04:00am 11.0 10.9 9.6 91 0.7 CALM 0 0 0 0 1011.3 1011.2 0.4
26/03:30am 11.6 11.7 10.2 91 0.7 CALM 0 0 0 0 1010.9 1010.8 0.4
26/03:00am 11.9 12.0 10.3 90 0.8 CALM 0 2 0 1 1010.8 1010.7 0.4
26/02:30am 13.0 12.1 11.4 90 0.8 NNE 7 9 4 5 1010.7 1010.6 0.4
26/02:00am 13.9 13.1 13.0 94 0.5 SW 9 11 5 6 1010.6 1010.5 0.4
26/01:30am 13.2 12.6 11.8 91 0.7 SW 6 7 3 4 1010.7 1010.6 0.4
26/01:00am 13.9 14.3 12.5 91 0.8 SW 2 6 1 3 1010.8 1010.7 0.4
26/12:30am 14.2 13.7 12.8 91 0.8 SW 7 9 4 5 1010.7 1010.6 0.4
26/12:00am 15.2 16.3 13.4 89 1.0 CALM 0 0 0 0 1010.9 1010.8 0.4
 
Date/Time
EST
Temp
°C
App
Temp
°C
Dew
Point
°C
Rel
Hum
%
Delta-T
°C
Wind Press
QNH
hPa
Press
MSL
hPa
Rain since
9am
mm
Dir  Spd
km/h
Gust
km/h
Spd
kts
Gust
kts
25/11:30pm 15.9 16.9 14.3 90 0.9 NW 2 6 1 3 1011.0 1010.9 0.4
25/11:00pm 16.4 17.9 14.6 89 1.0 CALM 0 0 0 0 1010.8 1010.7 0.4
25/10:30pm 18.0 19.8 15.6 86 1.4 CALM 0 6 0 3 1010.6 1010.5 0.4
25/10:00pm 19.6 20.4 17.4 87 1.3 SW 9 17 5 9 1010.5 1010.4 0.4
25/09:54pm 19.5 20.1 17.6 89 1.2 SW 11 19 6 10 1010.5 1010.4 0.4
25/09:30pm 18.4 20.8 16.9 91 0.9 CALM 0 0 0 0 1010.4 1010.3 0.4
25/09:00pm 19.1 21.2 17.1 88 1.2 SSW 2 6 1 3 1009.9 1009.8 0.4
25/08:30pm 20.4 22.4 18.7 90 1.1 SSW 6 7 3 4 1009.4 1009.3 0.4
25/08:16pm 21.5 24.1 20.0 91 1.0 SW 6 7 3 4 1009.2 1009.1 0.4
25/08:00pm 22.1 25.0 20.6 91 1.0 WNW 6 11 3 6 1009.1 1009.0 0.4
25/07:30pm 22.6 24.8 21.1 91 1.0 N 11 17 6 9 1008.4 1008.3 0.4
25/07:00pm 22.8 24.2 21.1 90 1.1 N 15 26 8 14 1008.0 1007.9 0.4
25/06:46pm 22.9 24.3 21.0 89 1.2 N 15 22 8 12 1007.8 1007.7 0.4
25/06:30pm 23.0 24.3 20.9 88 1.4 NNW 15 22 8 12 1007.6 1007.5 0.4
25/06:04pm 22.9 24.9 20.8 88 1.4 N 11 20 6 11 1007.3 1007.2 0.4
25/06:00pm 22.9 24.5 20.8 88 1.4 N 13 20 7 11 1007.3 1007.2 0.4
25/05:30pm 23.3 24.6 20.8 86 1.6 N 15 22 8 12 1006.8 1006.7 0.4
25/05:11pm 23.6 24.4 20.7 84 1.9 N 17 20 9 11 1006.4 1006.3 0.4
25/05:00pm 23.8 25.1 20.9 84 1.9 N 15 22 8 12 1006.3 1006.2 0.4
25/04:30pm 23.9 25.5 20.8 83 2.0 NNW 13 19 7 10 1006.1 1006.0 0.4
25/04:15pm 24.5 26.1 20.8 80 2.4 NNW 13 20 7 11 1006.1 1006.0 0.4
25/04:00pm 25.0 26.7 20.9 78 2.7 NNW 13 20 7 11 1006.1 1006.0 0.4
25/03:30pm 23.9 23.4 20.0 79 2.5 NNW 22 41 12 22 1005.6 1005.5 0.4
25/03:13pm 24.4 23.2 20.9 81 2.3 NNW 28 46 15 25 1005.2 1005.1 0.4
25/03:00pm 24.7 23.2 21.8 84 1.9 NNW 32 48 17 26 1005.4 1005.3 0.4
25/02:30pm 23.3 23.4 21.2 88 1.4 NNW 22 33 12 18 1005.7 1005.6 0.4
25/02:26pm 23.5 23.8 21.6 89 1.3 N 22 33 12 18 1005.5 1005.4 0.4
25/02:08pm 23.2 23.0 21.3 89 1.2 N 24 35 13 19 1005.4 1005.3 0.2
25/02:00pm 24.0 23.2 20.9 83 2.0 N 26 39 14 21 1005.9 1005.8 0.0
25/01:30pm 25.8 24.6 20.8 74 3.3 NNW 28 43 15 23 1006.3 1006.2 0.0
25/01:00pm 26.1 26.1 20.9 73 3.4 N 22 35 12 19 1006.7 1006.6 0.0
25/12:30pm 26.4 26.2 20.5 70 3.9 N 22 33 12 18 1006.8 1006.7 0.0
25/12:00pm 26.8 26.9 19.9 66 4.5 N 19 28 10 15 1007.7 1007.6 0.0
25/11:30am 25.7 26.4 19.6 69 3.9 N 15 22 8 12 1008.3 1008.2 0.0
25/11:00am 26.5 26.8 19.6 66 4.5 N 17 24 9 13 1008.6 1008.5 0.0
25/10:30am 27.3 28.5 18.3 58 5.7 W 9 17 5 9 1008.7 1008.6 0.0
25/10:00am 26.3 27.2 18.4 61 5.0 WSW 11 19 6 10 1009.4 1009.3 0.0
25/09:30am 26.5 26.3 18.4 61 5.2 W 17 26 9 14 1009.9 1009.8 0.0
25/09:00am 25.6 26.0 19.0 67 4.2 W 15 24 8 13 1009.9 1009.8 0.0
25/08:30am 23.9 24.7 19.0 74 3.1 W 13 17 7 9 1010.4 1010.3 0.0
25/08:00am 23.6 24.7 19.7 79 2.5 W 13 17 7 9 1010.5 1010.4 0.0
25/07:30am 22.9 24.1 19.9 83 1.9 W 13 20 7 11 1010.4 1010.3 0.0
25/07:15am 22.5 23.6 19.7 84 1.8 WNW 13 19 7 10 1010.2 1010.1 0.0
25/07:00am 23.0 24.2 19.8 82 2.1 WNW 13 22 7 12 1010.1 1010.0 0.0
25/06:48am 23.8 24.5 20.5 82 2.1 NW 17 26 9 14 1009.9 1009.8 0.0
25/06:30am 23.4 23.7 20.5 84 1.9 NNW 19 28 10 15 1009.5 1009.4 0.0
25/06:00am 22.7 23.0 20.4 87 1.5 NW 19 26 10 14 1009.1 1009.0 0.0
25/05:53am 22.6 23.2 20.3 87 1.5 NW 17 24 9 13 1009.0 1008.9 0.0
25/05:30am 22.8 23.6 20.7 88 1.4 NNW 17 26 9 14 1008.8 1008.7 0.0
25/05:00am 22.5 22.8 20.4 88 1.4 NNW 19 22 10 12 1008.6 1008.5 0.0
25/04:30am 22.7 23.5 20.6 88 1.4 NNW 17 24 9 13 1008.4 1008.3 0.0
25/04:00am 22.6 23.2 20.3 87 1.5 NNW 17 24 9 13 1008.3 1008.2 0.0
25/03:55am 22.6 23.6 20.3 87 1.5 NNW 15 24 8 13 1008.4 1008.3 0.0
25/03:54am 22.6 23.6 20.3 87 1.5 NNW 15 20 8 11 1008.4 1008.3 0.0
25/03:30am 22.5 23.6 20.4 88 1.4 N 15 20 8 11 1008.3 1008.2 0.0
25/03:00am 22.4 23.9 20.5 89 1.2 N 13 17 7 9 1008.3 1008.2 0.0
25/02:30am 22.4 23.4 20.3 88 1.4 N 15 22 8 12 1008.5 1008.4 0.0
25/02:00am 22.1 23.0 20.0 88 1.4 N 15 22 8 12 1008.6 1008.5 0.0
25/01:30am 22.2 23.4 19.9 87 1.5 N 13 19 7 10 1008.8 1008.7 0.0
25/01:00am 22.0 22.7 19.7 87 1.5 N 15 22 8 12 1009.0 1008.9 0.0
25/12:32am 21.9 21.8 19.5 86 1.5 N 19 24 10 13 1009.1 1009.0 0.0
25/12:30am 22.0 22.3 19.5 86 1.6 N 17 24 9 13 1009.1 1009.0 0.0
25/12:00am 22.1 22.6 19.3 84 1.8 N 15 24 8 13 1009.6 1009.5 0.0
 
Date/Time
EST
Temp
°C
App
Temp
°C
Dew
Point
°C
Rel
Hum
%
Delta-T
°C
Wind Press
QNH
hPa
Press
MSL
hPa
Rain since
9am
mm
Dir  Spd
km/h
Gust
km/h
Spd
kts
Gust
kts
24/11:30pm 22.0 22.1 19.2 84 1.8 N 17 24 9 13 1009.9 1009.8 0.0
24/11:00pm 21.7 23.2 18.9 84 1.8 N 9 13 5 7 1010.2 1010.1 0.0
24/10:30pm 21.4 22.4 18.6 84 1.8 N 11 17 6 9 1010.3 1010.2 0.0
24/10:00pm 21.3 22.2 18.3 83 1.9 N 11 20 6 11 1010.7 1010.6 0.0
24/09:30pm 21.5 21.9 18.1 81 2.1 N 13 20 7 11 1010.8 1010.7 0.0
24/09:00pm 21.6 21.1 17.8 79 2.4 N 17 22 9 12 1010.9 1010.8 0.0
24/08:30pm 21.6 20.9 17.4 77 2.6 N 17 30 9 16 1010.8 1010.7 0.0
24/08:00pm 21.5 21.0 16.9 75 2.8 N 15 22 8 12 1010.4 1010.3 0.0
24/07:30pm 21.5 21.0 16.9 75 2.8 N 15 22 8 12 1010.1 1010.0 0.0
24/07:00pm 21.4 20.7 16.4 73 3.0 N 15 19 8 10 1009.7 1009.6 0.0
24/06:30pm 21.5 20.7 16.2 72 3.2 N 15 22 8 12 1009.3 1009.2 0.0
24/06:00pm 21.6 20.1 15.4 68 3.7 N 17 24 9 13 1008.8 1008.7 0.0
24/05:30pm 22.0 20.8 15.1 65 4.1 N 15 20 8 11 1008.7 1008.6 0.0
24/05:00pm 22.5 20.9 15.1 63 4.4 N 17 22 9 12 1008.3 1008.2 0.0
24/04:30pm 23.2 21.3 15.3 61 4.7 N 19 30 10 16 1008.1 1008.0 0.0
24/04:00pm 23.5 21.3 14.8 58 5.2 N 20 30 11 16 1008.0 1007.9 0.0
24/03:30pm 23.7 21.1 13.8 53 5.8 N 20 30 11 16 1008.1 1008.0 0.0
24/03:00pm 24.5 22.0 13.4 50 6.5 N 19 26 10 14 1008.5 1008.4 0.0
24/02:30pm 25.0 22.2 13.2 48 6.9 N 20 28 11 15 1008.8 1008.7 0.0
24/02:00pm 24.2 20.9 11.5 45 7.2 N 20 28 11 15 1009.3 1009.2 0.0
24/01:30pm 24.0 20.3 10.3 42 7.6 N 20 30 11 16 1009.9 1009.8 0.0
24/01:00pm 24.2 20.5 10.1 41 7.8 N 20 28 11 15 1010.3 1010.2 0.0
24/12:30pm 24.5 20.9 10.0 40 8.0 N 19 28 10 15 1010.7 1010.6 0.0
24/12:00pm 24.1 20.1 8.1 36 8.5 N 19 26 10 14 1011.2 1011.1 0.0
24/11:30am 24.4 20.0 7.5 34 8.9 N 20 28 11 15 1011.8 1011.7 0.0
24/11:00am 24.5 20.4 8.0 35 8.8 NNW 19 26 10 14 1012.2 1012.1 0.0
24/10:30am 23.9 20.6 7.9 36 8.5 N 15 24 8 13 1012.6 1012.5 0.0
24/10:00am 23.3 21.0 10.4 44 7.1 ENE 13 17 7 9 1013.0 1012.9 0.0
24/09:30am 22.9 20.9 7.1 36 8.2 NW 7 11 4 6 1013.4 1013.3 0.0
24/09:00am 21.8 20.0 8.0 41 7.2 SSW 7 11 4 6 1013.5 1013.4 0.0
24/08:30am 20.3 18.4 8.9 48 6.0 SW 9 11 5 6 1013.7 1013.6 0.0
24/08:00am 18.7 16.8 9.2 54 5.0 SSW 9 11 5 6 1013.8 1013.7 0.0
24/07:30am 16.4 14.0 8.6 60 4.0 SSW 11 13 6 7 1013.7 1013.6 0.0
24/07:00am 14.3 12.1 7.8 65 3.2 SSW 9 11 5 6 1013.6 1013.5 0.0
24/06:30am 12.7 11.2 8.6 76 2.0 S 6 7 3 4 1013.2 1013.1 0.0
24/06:00am 10.7 8.9 7.8 82 1.4 SSW 7 9 4 5 1012.9 1012.8 0.0
24/05:30am 10.5 8.1 8.6 88 0.9 SW 11 13 6 7 1012.5 1012.4 0.0
24/05:00am 11.0 9.1 9.1 88 0.9 SW 9 11 5 6 1012.3 1012.2 0.0

Other Formats:

Comma delimited format used in spreadsheet applications
http://www.bom.gov.au/fwo/IDQ60801/IDQ60801.95565.axf

JavaScript Object Notation format (JSON) in row-major order
http://www.bom.gov.au/fwo/IDQ60801/IDQ60801.95565.json